sensor_id;sensor_type;location;lat;lon;timestamp;noise_LAeq;noise_LA_min;noise_LA_max;noise_LA01;noise_LA95
37163;Laerm;23057;48.554;14.454;2024-03-08T00:00:36;37.52;33.90;39.92;;
37163;Laerm;23057;48.554;14.454;2024-03-08T00:03:09;37.48;32.35;39.92;;
37163;Laerm;23057;48.554;14.454;2024-03-08T00:05:40;37.45;33.44;40.03;;
37163;Laerm;23057;48.554;14.454;2024-03-08T00:08:12;37.47;32.93;40.23;;
37163;Laerm;23057;48.554;14.454;2024-03-08T00:10:43;37.47;32.93;40.13;;
37163;Laerm;23057;48.554;14.454;2024-03-08T00:13:14;37.46;33.44;40.23;;
37163;Laerm;23057;48.554;14.454;2024-03-08T00:15:44;37.44;32.93;40.03;;
37163;Laerm;23057;48.554;14.454;2024-03-08T00:18:16;37.48;33.44;40.03;;
37163;Laerm;23057;48.554;14.454;2024-03-08T00:20:47;37.44;32.93;39.78;;
37163;Laerm;23057;48.554;14.454;2024-03-08T00:23:18;37.49;33.44;53.09;;
37163;Laerm;23057;48.554;14.454;2024-03-08T00:25:49;37.43;33.44;40.13;;
37163;Laerm;23057;48.554;14.454;2024-03-08T00:28:19;37.43;33.44;40.71;;
37163;Laerm;23057;48.554;14.454;2024-03-08T00:30:50;37.43;33.44;40.53;;
37163;Laerm;23057;48.554;14.454;2024-03-08T00:33:21;37.45;33.44;40.23;;
37163;Laerm;23057;48.554;14.454;2024-03-08T00:35:53;37.43;32.93;40.13;;
37163;Laerm;23057;48.554;14.454;2024-03-08T00:38:24;37.41;32.93;40.13;;
37163;Laerm;23057;48.554;14.454;2024-03-08T00:40:54;37.41;33.90;40.13;;
37163;Laerm;23057;48.554;14.454;2024-03-08T00:43:27;37.42;33.44;40.03;;
37163;Laerm;23057;48.554;14.454;2024-03-08T00:45:58;37.39;33.97;39.92;;
37163;Laerm;23057;48.554;14.454;2024-03-08T00:48:29;37.39;32.35;40.03;;
37163;Laerm;23057;48.554;14.454;2024-03-08T00:51:01;37.36;33.44;43.14;;
37163;Laerm;23057;48.554;14.454;2024-03-08T00:53:32;37.32;33.44;40.03;;
37163;Laerm;23057;48.554;14.454;2024-03-08T00:56:04;37.33;32.35;40.43;;
37163;Laerm;23057;48.554;14.454;2024-03-08T00:58:36;37.34;32.93;40.13;;
37163;Laerm;23057;48.554;14.454;2024-03-08T01:01:07;37.33;33.44;40.13;;
37163;Laerm;23057;48.554;14.454;2024-03-08T01:03:40;37.34;32.93;42.65;;
37163;Laerm;23057;48.554;14.454;2024-03-08T01:06:13;37.29;32.93;40.13;;
37163;Laerm;23057;48.554;14.454;2024-03-08T01:08:44;37.32;32.93;40.03;;
37163;Laerm;23057;48.554;14.454;2024-03-08T01:11:15;37.30;31.68;39.81;;
37163;Laerm;23057;48.554;14.454;2024-03-08T01:13:47;37.30;32.93;39.81;;
37163;Laerm;23057;48.554;14.454;2024-03-08T01:16:18;37.33;33.44;39.81;;
37163;Laerm;23057;48.554;14.454;2024-03-08T01:18:50;37.31;32.93;40.03;;
37163;Laerm;23057;48.554;14.454;2024-03-08T01:21:21;37.31;33.44;40.13;;
37163;Laerm;23057;48.554;14.454;2024-03-08T01:23:53;37.26;30.89;40.53;;
37163;Laerm;23057;48.554;14.454;2024-03-08T01:26:23;37.26;33.44;40.13;;
37163;Laerm;23057;48.554;14.454;2024-03-08T01:28:54;37.26;32.35;39.81;;
37163;Laerm;23057;48.554;14.454;2024-03-08T01:31:25;37.26;32.93;39.81;;
37163;Laerm;23057;48.554;14.454;2024-03-08T01:33:58;37.25;33.44;40.03;;
37163;Laerm;23057;48.554;14.454;2024-03-08T01:36:29;37.20;32.93;39.81;;
37163;Laerm;23057;48.554;14.454;2024-03-08T01:39:00;37.23;32.93;40.53;;
37163;Laerm;23057;48.554;14.454;2024-03-08T01:41:31;37.19;32.93;39.92;;
37163;Laerm;23057;48.554;14.454;2024-03-08T01:44:03;37.17;32.93;39.92;;
37163;Laerm;23057;48.554;14.454;2024-03-08T01:46:35;37.19;32.35;40.03;;
37163;Laerm;23057;48.554;14.454;2024-03-08T01:49:06;37.20;32.35;39.81;;
37163;Laerm;23057;48.554;14.454;2024-03-08T01:51:40;37.18;32.93;39.81;;
37163;Laerm;23057;48.554;14.454;2024-03-08T01:54:14;37.13;32.93;39.89;;
37163;Laerm;23057;48.554;14.454;2024-03-08T01:56:47;37.05;32.35;40.13;;
37163;Laerm;23057;48.554;14.454;2024-03-08T01:59:18;37.03;32.35;39.70;;
37163;Laerm;23057;48.554;14.454;2024-03-08T02:01:50;36.99;31.68;39.92;;
37163;Laerm;23057;48.554;14.454;2024-03-08T02:04:22;36.99;31.68;39.81;;
37163;Laerm;23057;48.554;14.454;2024-03-08T02:06:53;36.96;30.89;39.46;;
37163;Laerm;23057;48.554;14.454;2024-03-08T02:09:24;36.97;32.93;39.81;;
37163;Laerm;23057;48.554;14.454;2024-03-08T02:11:57;36.96;31.68;39.81;;
37163;Laerm;23057;48.554;14.454;2024-03-08T02:14:28;36.95;31.68;39.46;;
37163;Laerm;23057;48.554;14.454;2024-03-08T02:17:02;37.02;32.35;39.81;;
37163;Laerm;23057;48.554;14.454;2024-03-08T02:19:33;37.10;32.93;40.03;;
37163;Laerm;23057;48.554;14.454;2024-03-08T02:22:06;37.17;32.93;40.18;;
37163;Laerm;23057;48.554;14.454;2024-03-08T02:24:37;37.13;32.35;39.92;;
37163;Laerm;23057;48.554;14.454;2024-03-08T02:27:08;37.04;30.89;39.70;;
37163;Laerm;23057;48.554;14.454;2024-03-08T02:29:44;37.03;31.68;39.81;;
37163;Laerm;23057;48.554;14.454;2024-03-08T02:32:15;37.04;32.35;39.70;;
37163;Laerm;23057;48.554;14.454;2024-03-08T02:34:46;36.99;29.92;39.58;;
37163;Laerm;23057;48.554;14.454;2024-03-08T02:37:17;36.96;31.68;39.58;;
37163;Laerm;23057;48.554;14.454;2024-03-08T02:39:48;37.02;31.68;39.81;;
37163;Laerm;23057;48.554;14.454;2024-03-08T02:42:19;37.12;32.35;40.13;;
37163;Laerm;23057;48.554;14.454;2024-03-08T02:44:50;37.15;32.35;40.13;;
37163;Laerm;23057;48.554;14.454;2024-03-08T02:47:21;37.15;32.93;40.13;;
37163;Laerm;23057;48.554;14.454;2024-03-08T02:49:52;37.09;30.89;39.70;;
37163;Laerm;23057;48.554;14.454;2024-03-08T02:52:22;37.08;32.00;39.81;;
37163;Laerm;23057;48.554;14.454;2024-03-08T02:54:53;37.07;31.68;39.70;;
37163;Laerm;23057;48.554;14.454;2024-03-08T02:57:24;37.09;29.92;39.70;;
37163;Laerm;23057;48.554;14.454;2024-03-08T02:59:55;37.20;32.35;40.13;;
37163;Laerm;23057;48.554;14.454;2024-03-08T03:02:26;37.20;32.35;40.13;;
37163;Laerm;23057;48.554;14.454;2024-03-08T03:04:57;37.22;31.68;40.03;;
37163;Laerm;23057;48.554;14.454;2024-03-08T03:07:29;37.23;32.93;40.03;;
37163;Laerm;23057;48.554;14.454;2024-03-08T03:10:00;37.22;33.44;40.33;;
37163;Laerm;23057;48.554;14.454;2024-03-08T03:12:32;37.19;33.44;40.62;;
37163;Laerm;23057;48.554;14.454;2024-03-08T03:15:05;37.18;32.93;39.58;;
37163;Laerm;23057;48.554;14.454;2024-03-08T03:17:37;37.16;32.35;39.81;;
37163;Laerm;23057;48.554;14.454;2024-03-08T03:20:09;37.12;32.93;40.03;;
37163;Laerm;23057;48.554;14.454;2024-03-08T03:22:41;37.08;32.35;39.92;;
37163;Laerm;23057;48.554;14.454;2024-03-08T03:25:12;37.04;32.35;39.81;;
37163;Laerm;23057;48.554;14.454;2024-03-08T03:27:43;37.06;32.93;39.81;;
37163;Laerm;23057;48.554;14.454;2024-03-08T03:30:14;37.02;31.68;40.33;;
37163;Laerm;23057;48.554;14.454;2024-03-08T03:32:56;37.04;31.68;39.70;;
37163;Laerm;23057;48.554;14.454;2024-03-08T03:35:31;37.03;31.68;40.03;;
37163;Laerm;23057;48.554;14.454;2024-03-08T03:38:02;37.07;32.35;39.81;;
37163;Laerm;23057;48.554;14.454;2024-03-08T03:40:39;37.10;32.93;39.81;;
37163;Laerm;23057;48.554;14.454;2024-03-08T03:43:12;37.17;31.68;40.23;;
37163;Laerm;23057;48.554;14.454;2024-03-08T03:45:43;37.13;32.93;39.92;;
37163;Laerm;23057;48.554;14.454;2024-03-08T03:48:14;37.17;32.35;39.92;;
37163;Laerm;23057;48.554;14.454;2024-03-08T03:50:44;37.15;30.89;40.13;;
37163;Laerm;23057;48.554;14.454;2024-03-08T03:53:16;37.14;32.58;39.92;;
37163;Laerm;23057;48.554;14.454;2024-03-08T03:55:46;37.13;30.89;39.81;;
37163;Laerm;23057;48.554;14.454;2024-03-08T03:58:17;37.13;32.93;40.23;;
37163;Laerm;23057;48.554;14.454;2024-03-08T04:00:53;37.13;32.35;39.81;;
37163;Laerm;23057;48.554;14.454;2024-03-08T04:03:24;37.11;30.89;40.13;;
37163;Laerm;23057;48.554;14.454;2024-03-08T04:05:55;37.09;31.68;39.81;;
37163;Laerm;23057;48.554;14.454;2024-03-08T04:08:26;37.08;32.35;39.92;;
37163;Laerm;23057;48.554;14.454;2024-03-08T04:10:57;37.10;31.68;39.92;;
37163;Laerm;23057;48.554;14.454;2024-03-08T04:13:29;37.09;32.35;39.92;;
37163;Laerm;23057;48.554;14.454;2024-03-08T04:16:00;37.07;32.93;39.92;;
37163;Laerm;23057;48.554;14.454;2024-03-08T04:18:31;37.08;31.68;39.81;;
37163;Laerm;23057;48.554;14.454;2024-03-08T04:21:04;37.10;32.35;40.23;;
37163;Laerm;23057;48.554;14.454;2024-03-08T04:23:37;37.10;32.35;39.92;;
37163;Laerm;23057;48.554;14.454;2024-03-08T04:26:08;37.07;32.35;39.81;;
37163;Laerm;23057;48.554;14.454;2024-03-08T04:28:40;37.08;32.93;39.92;;
37163;Laerm;23057;48.554;14.454;2024-03-08T04:31:11;37.08;31.68;40.13;;
37163;Laerm;23057;48.554;14.454;2024-03-08T04:33:42;37.06;31.68;40.03;;
37163;Laerm;23057;48.554;14.454;2024-03-08T04:36:12;37.03;32.00;39.92;;
37163;Laerm;23057;48.554;14.454;2024-03-08T04:38:44;37.04;31.68;39.70;;
37163;Laerm;23057;48.554;14.454;2024-03-08T04:41:15;37.02;32.35;39.81;;
37163;Laerm;23057;48.554;14.454;2024-03-08T04:43:46;36.96;31.68;39.81;;
37163;Laerm;23057;48.554;14.454;2024-03-08T04:46:17;36.93;32.93;40.03;;
37163;Laerm;23057;48.554;14.454;2024-03-08T04:48:48;36.91;32.35;39.58;;
37163;Laerm;23057;48.554;14.454;2024-03-08T04:51:19;36.94;31.68;39.92;;
37163;Laerm;23057;48.554;14.454;2024-03-08T04:53:50;36.93;32.35;39.81;;
37163;Laerm;23057;48.554;14.454;2024-03-08T04:56:21;36.97;30.89;39.70;;
37163;Laerm;23057;48.554;14.454;2024-03-08T04:58:52;36.90;31.68;39.81;;
37163;Laerm;23057;48.554;14.454;2024-03-08T05:01:24;36.91;31.68;39.81;;
37163;Laerm;23057;48.554;14.454;2024-03-08T05:03:54;36.85;31.68;39.58;;
37163;Laerm;23057;48.554;14.454;2024-03-08T05:06:26;36.83;31.68;39.92;;
37163;Laerm;23057;48.554;14.454;2024-03-08T05:08:56;36.82;31.68;39.70;;
37163;Laerm;23057;48.554;14.454;2024-03-08T05:11:27;36.79;31.68;44.19;;
37163;Laerm;23057;48.554;14.454;2024-03-08T05:13:58;36.78;31.68;40.13;;
37163;Laerm;23057;48.554;14.454;2024-03-08T05:16:29;36.81;31.68;39.70;;
37163;Laerm;23057;48.554;14.454;2024-03-08T05:19:00;36.91;32.93;39.58;;
37163;Laerm;23057;48.554;14.454;2024-03-08T05:21:31;36.97;31.68;39.70;;
37163;Laerm;23057;48.554;14.454;2024-03-08T05:24:02;37.00;32.35;39.58;;
37163;Laerm;23057;48.554;14.454;2024-03-08T05:26:33;37.03;30.89;40.13;;
37163;Laerm;23057;48.554;14.454;2024-03-08T05:29:04;37.17;32.93;39.92;;
37163;Laerm;23057;48.554;14.454;2024-03-08T05:31:47;37.12;28.67;39.92;;
37163;Laerm;23057;48.554;14.454;2024-03-08T05:34:19;37.07;31.68;40.23;;
37163;Laerm;23057;48.554;14.454;2024-03-08T05:36:50;37.06;31.68;40.13;;
37163;Laerm;23057;48.554;14.454;2024-03-08T05:39:21;37.14;32.35;39.81;;
37163;Laerm;23057;48.554;14.454;2024-03-08T05:41:52;37.12;32.35;39.81;;
37163;Laerm;23057;48.554;14.454;2024-03-08T05:44:25;37.11;32.35;39.92;;
37163;Laerm;23057;48.554;14.454;2024-03-08T05:46:59;37.16;32.93;39.92;;
37163;Laerm;23057;48.554;14.454;2024-03-08T05:49:30;37.17;31.68;39.58;;
37163;Laerm;23057;48.554;14.454;2024-03-08T05:52:01;37.17;32.35;39.81;;
37163;Laerm;23057;48.554;14.454;2024-03-08T05:54:31;37.10;28.67;39.81;;
37163;Laerm;23057;48.554;14.454;2024-03-08T05:57:04;37.08;32.35;39.92;;
37163;Laerm;23057;48.554;14.454;2024-03-08T05:59:35;37.32;33.09;40.23;;
37163;Laerm;23057;48.554;14.454;2024-03-08T06:02:06;37.43;33.55;39.92;;
37163;Laerm;23057;48.554;14.454;2024-03-08T06:04:37;37.48;33.90;40.33;;
37163;Laerm;23057;48.554;14.454;2024-03-08T06:07:08;37.62;32.93;40.33;;
37163;Laerm;23057;48.554;14.454;2024-03-08T06:09:43;37.69;32.35;40.62;;
37163;Laerm;23057;48.554;14.454;2024-03-08T06:12:16;37.77;34.31;40.53;;
37163;Laerm;23057;48.554;14.454;2024-03-08T06:14:49;37.92;34.31;40.43;;
37163;Laerm;23057;48.554;14.454;2024-03-08T06:17:20;38.18;34.31;40.63;;
37163;Laerm;23057;48.554;14.454;2024-03-08T06:19:56;38.22;33.90;40.62;;
37163;Laerm;23057;48.554;14.454;2024-03-08T06:22:27;38.27;35.04;40.62;;
37163;Laerm;23057;48.554;14.454;2024-03-08T06:24:58;38.31;35.04;40.80;;
37163;Laerm;23057;48.554;14.454;2024-03-08T06:27:29;38.37;35.59;40.62;;
37163;Laerm;23057;48.554;14.454;2024-03-08T06:30:01;38.40;34.69;40.98;;
37163;Laerm;23057;48.554;14.454;2024-03-08T06:32:32;38.41;35.31;40.43;;
37163;Laerm;23057;48.554;14.454;2024-03-08T06:35:06;38.42;34.69;40.80;;
37163;Laerm;23057;48.554;14.454;2024-03-08T06:37:37;38.42;35.04;41.06;;
37163;Laerm;23057;48.554;14.454;2024-03-08T06:40:10;38.39;35.36;40.98;;
37163;Laerm;23057;48.554;14.454;2024-03-08T06:42:44;38.34;35.04;40.71;;
37163;Laerm;23057;48.554;14.454;2024-03-08T06:45:16;38.35;35.04;40.71;;
37163;Laerm;23057;48.554;14.454;2024-03-08T06:47:51;38.37;35.36;40.71;;
37163;Laerm;23057;48.554;14.454;2024-03-08T06:50:22;38.36;34.69;40.89;;
37163;Laerm;23057;48.554;14.454;2024-03-08T06:52:53;38.38;34.69;40.98;;
37163;Laerm;23057;48.554;14.454;2024-03-08T06:55:24;38.36;34.69;41.14;;
37163;Laerm;23057;48.554;14.454;2024-03-08T06:57:55;38.38;33.90;40.71;;
37163;Laerm;23057;48.554;14.454;2024-03-08T07:00:26;38.37;34.69;40.80;;
37163;Laerm;23057;48.554;14.454;2024-03-08T07:02:59;38.37;35.04;41.06;;
37163;Laerm;23057;48.554;14.454;2024-03-08T07:05:33;38.35;34.69;40.98;;
37163;Laerm;23057;48.554;14.454;2024-03-08T07:08:05;38.36;35.04;40.80;;
37163;Laerm;23057;48.554;14.454;2024-03-08T07:10:37;38.37;34.69;40.62;;
37163;Laerm;23057;48.554;14.454;2024-03-08T07:13:08;38.35;35.04;40.80;;
37163;Laerm;23057;48.554;14.454;2024-03-08T07:15:41;38.35;35.36;40.89;;
37163;Laerm;23057;48.554;14.454;2024-03-08T07:18:13;38.36;35.36;41.14;;
37163;Laerm;23057;48.554;14.454;2024-03-08T07:20:45;38.36;34.69;40.62;;
37163;Laerm;23057;48.554;14.454;2024-03-08T07:23:16;38.37;34.69;41.06;;
37163;Laerm;23057;48.554;14.454;2024-03-08T07:26:07;38.41;34.69;40.98;;
37163;Laerm;23057;48.554;14.454;2024-03-08T07:28:38;38.42;35.36;40.89;;
37163;Laerm;23057;48.554;14.454;2024-03-08T07:31:09;38.38;35.04;40.80;;
37163;Laerm;23057;48.554;14.454;2024-03-08T07:33:42;38.36;34.69;41.06;;
37163;Laerm;23057;48.554;14.454;2024-03-08T07:36:13;38.43;35.31;41.61;;
37163;Laerm;23057;48.554;14.454;2024-03-08T07:38:45;38.42;34.69;41.53;;
37163;Laerm;23057;48.554;14.454;2024-03-08T07:41:17;38.44;33.97;40.80;;
37163;Laerm;23057;48.554;14.454;2024-03-08T07:43:49;38.43;34.69;40.89;;
37163;Laerm;23057;48.554;14.454;2024-03-08T07:46:20;38.40;35.36;40.71;;
37163;Laerm;23057;48.554;14.454;2024-03-08T07:48:51;38.44;35.04;40.89;;
37163;Laerm;23057;48.554;14.454;2024-03-08T07:51:22;38.47;35.04;41.22;;
37163;Laerm;23057;48.554;14.454;2024-03-08T07:53:53;38.44;35.36;41.06;;
37163;Laerm;23057;48.554;14.454;2024-03-08T07:56:24;38.53;34.69;41.22;;
37163;Laerm;23057;48.554;14.454;2024-03-08T07:58:56;38.47;35.36;40.89;;
37163;Laerm;23057;48.554;14.454;2024-03-08T08:01:27;38.39;34.31;40.80;;
37163;Laerm;23057;48.554;14.454;2024-03-08T08:03:58;38.44;35.04;40.71;;
37163;Laerm;23057;48.554;14.454;2024-03-08T08:06:29;38.34;35.04;40.98;;
37163;Laerm;23057;48.554;14.454;2024-03-08T08:09:03;38.41;35.04;41.14;;
37163;Laerm;23057;48.554;14.454;2024-03-08T08:11:34;38.21;34.69;40.89;;
37163;Laerm;23057;48.554;14.454;2024-03-08T08:14:05;38.03;33.90;40.71;;
37163;Laerm;23057;48.554;14.454;2024-03-08T08:16:36;37.95;33.90;40.43;;
37163;Laerm;23057;48.554;14.454;2024-03-08T08:19:08;37.96;34.31;40.53;;
37163;Laerm;23057;48.554;14.454;2024-03-08T08:21:39;37.89;34.31;40.80;;
37163;Laerm;23057;48.554;14.454;2024-03-08T08:24:10;37.90;34.31;40.33;;
37163;Laerm;23057;48.554;14.454;2024-03-08T08:26:41;37.86;33.44;40.23;;
37163;Laerm;23057;48.554;14.454;2024-03-08T08:29:12;37.88;34.69;40.71;;
37163;Laerm;23057;48.554;14.454;2024-03-08T08:31:43;37.85;34.69;40.33;;
37163;Laerm;23057;48.554;14.454;2024-03-08T08:34:14;37.85;34.69;40.03;;
37163;Laerm;23057;48.554;14.454;2024-03-08T08:36:45;37.87;33.44;40.43;;
37163;Laerm;23057;48.554;14.454;2024-03-08T08:39:16;37.89;33.90;40.33;;
37163;Laerm;23057;48.554;14.454;2024-03-08T08:41:48;37.87;34.31;40.43;;
37163;Laerm;23057;48.554;14.454;2024-03-08T08:44:19;37.86;34.69;40.43;;
37163;Laerm;23057;48.554;14.454;2024-03-08T08:46:50;37.84;34.69;40.23;;
37163;Laerm;23057;48.554;14.454;2024-03-08T08:49:20;37.87;34.31;40.62;;
37163;Laerm;23057;48.554;14.454;2024-03-08T08:51:52;37.88;33.44;40.43;;
37163;Laerm;23057;48.554;14.454;2024-03-08T08:54:23;37.92;34.31;40.27;;
37163;Laerm;23057;48.554;14.454;2024-03-08T08:56:55;37.90;34.69;40.23;;
37163;Laerm;23057;48.554;14.454;2024-03-08T08:59:26;37.91;35.01;40.43;;
37163;Laerm;23057;48.554;14.454;2024-03-08T09:01:57;37.94;34.31;40.23;;
37163;Laerm;23057;48.554;14.454;2024-03-08T09:04:28;37.94;34.31;40.43;;
37163;Laerm;23057;48.554;14.454;2024-03-08T09:06:59;37.97;34.69;40.43;;
37163;Laerm;23057;48.554;14.454;2024-03-08T09:09:32;37.96;34.69;40.33;;
37163;Laerm;23057;48.554;14.454;2024-03-08T09:12:03;37.98;34.69;40.33;;
37163;Laerm;23057;48.554;14.454;2024-03-08T09:14:34;37.98;34.69;40.23;;
37163;Laerm;23057;48.554;14.454;2024-03-08T09:17:05;38.00;34.31;40.62;;
37163;Laerm;23057;48.554;14.454;2024-03-08T09:19:39;38.02;34.69;40.33;;
37163;Laerm;23057;48.554;14.454;2024-03-08T09:22:10;38.04;34.69;40.43;;
37163;Laerm;23057;48.554;14.454;2024-03-08T09:24:42;38.02;34.69;40.53;;
37163;Laerm;23057;48.554;14.454;2024-03-08T09:27:14;38.05;35.04;40.71;;
37163;Laerm;23057;48.554;14.454;2024-03-08T09:29:44;38.05;34.69;40.71;;
37163;Laerm;23057;48.554;14.454;2024-03-08T09:32:15;38.03;34.69;40.33;;
37163;Laerm;23057;48.554;14.454;2024-03-08T09:34:47;38.04;35.04;40.53;;
37163;Laerm;23057;48.554;14.454;2024-03-08T09:37:18;38.04;34.69;40.43;;
37163;Laerm;23057;48.554;14.454;2024-03-08T09:39:49;38.05;35.04;40.80;;
37163;Laerm;23057;48.554;14.454;2024-03-08T09:42:20;38.07;34.69;40.43;;
37163;Laerm;23057;48.554;14.454;2024-03-08T09:44:51;38.04;33.44;40.62;;
37163;Laerm;23057;48.554;14.454;2024-03-08T09:47:28;38.04;34.69;40.89;;
37163;Laerm;23057;48.554;14.454;2024-03-08T09:50:07;38.06;34.69;40.43;;
37163;Laerm;23057;48.554;14.454;2024-03-08T09:52:40;38.06;34.69;40.43;;
37163;Laerm;23057;48.554;14.454;2024-03-08T09:55:11;38.03;35.04;40.23;;
37163;Laerm;23057;48.554;14.454;2024-03-08T09:57:43;38.08;34.31;40.43;;
37163;Laerm;23057;48.554;14.454;2024-03-08T10:00:34;38.06;34.31;40.33;;
37163;Laerm;23057;48.554;14.454;2024-03-08T10:03:05;38.06;35.04;40.62;;
37163;Laerm;23057;48.554;14.454;2024-03-08T10:05:37;38.06;34.69;40.43;;
37163;Laerm;23057;48.554;14.454;2024-03-08T10:08:08;38.05;33.90;40.53;;
37163;Laerm;23057;48.554;14.454;2024-03-08T10:10:40;38.09;34.69;40.27;;
37163;Laerm;23057;48.554;14.454;2024-03-08T10:13:11;38.12;34.31;40.62;;
37163;Laerm;23057;48.554;14.454;2024-03-08T10:15:44;38.06;34.31;40.33;;
37163;Laerm;23057;48.554;14.454;2024-03-08T10:18:15;38.09;33.90;40.43;;
37163;Laerm;23057;48.554;14.454;2024-03-08T10:21:08;38.07;33.44;40.43;;
37163;Laerm;23057;48.554;14.454;2024-03-08T10:23:41;38.12;34.69;40.71;;
37163;Laerm;23057;48.554;14.454;2024-03-08T10:26:18;38.11;34.69;40.62;;
37163;Laerm;23057;48.554;14.454;2024-03-08T10:28:53;38.08;35.04;40.23;;
37163;Laerm;23057;48.554;14.454;2024-03-08T10:31:24;38.05;34.31;40.62;;
37163;Laerm;23057;48.554;14.454;2024-03-08T10:33:55;38.07;33.44;40.89;;
37163;Laerm;23057;48.554;14.454;2024-03-08T10:36:27;38.08;35.04;40.80;;
37163;Laerm;23057;48.554;14.454;2024-03-08T10:39:01;38.08;34.69;40.53;;
37163;Laerm;23057;48.554;14.454;2024-03-08T10:41:36;38.07;35.04;40.62;;
37163;Laerm;23057;48.554;14.454;2024-03-08T10:44:32;38.09;34.69;40.53;;
37163;Laerm;23057;48.554;14.454;2024-03-08T10:47:19;38.09;34.69;40.71;;
37163;Laerm;23057;48.554;14.454;2024-03-08T10:50:19;38.06;33.90;41.22;;
37163;Laerm;23057;48.554;14.454;2024-03-08T10:52:54;38.07;34.31;40.62;;
37163;Laerm;23057;48.554;14.454;2024-03-08T10:55:29;38.08;35.04;41.06;;
37163;Laerm;23057;48.554;14.454;2024-03-08T10:58:02;38.09;34.69;40.62;;
37163;Laerm;23057;48.554;14.454;2024-03-08T11:00:32;38.12;34.69;40.62;;
37163;Laerm;23057;48.554;14.454;2024-03-08T11:03:04;38.11;34.31;40.62;;
37163;Laerm;23057;48.554;14.454;2024-03-08T11:05:40;38.10;35.01;40.53;;
37163;Laerm;23057;48.554;14.454;2024-03-08T11:13:40;38.12;34.69;42.16;;
37163;Laerm;23057;48.554;14.454;2024-03-08T11:21:43;38.09;35.04;40.33;;
37163;Laerm;23057;48.554;14.454;2024-03-08T11:24:15;38.12;35.04;41.06;;
37163;Laerm;23057;48.554;14.454;2024-03-08T11:26:47;38.09;35.04;41.06;;
37163;Laerm;23057;48.554;14.454;2024-03-08T11:32:15;38.08;34.69;40.43;;
37163;Laerm;23057;48.554;14.454;2024-03-08T11:34:50;38.08;34.31;40.71;;
37163;Laerm;23057;48.554;14.454;2024-03-08T11:37:21;38.07;33.90;40.62;;
37163;Laerm;23057;48.554;14.454;2024-03-08T11:39:54;38.05;34.69;40.63;;
37163;Laerm;23057;48.554;14.454;2024-03-08T11:42:35;38.11;33.90;40.62;;
37163;Laerm;23057;48.554;14.454;2024-03-08T11:45:09;38.09;33.90;40.62;;
37163;Laerm;23057;48.554;14.454;2024-03-08T11:47:45;38.06;34.69;40.98;;
37163;Laerm;23057;48.554;14.454;2024-03-08T11:50:17;38.10;34.69;41.82;;
37163;Laerm;23057;48.554;14.454;2024-03-08T11:52:51;38.17;35.01;41.46;;
37163;Laerm;23057;48.554;14.454;2024-03-08T11:55:23;38.15;33.44;40.53;;
37163;Laerm;23057;48.554;14.454;2024-03-08T11:58:04;38.18;33.44;41.38;;
37163;Laerm;23057;48.554;14.454;2024-03-08T12:00:35;38.08;34.69;40.80;;
37163;Laerm;23057;48.554;14.454;2024-03-08T12:03:08;38.07;33.90;40.62;;
37163;Laerm;23057;48.554;14.454;2024-03-08T12:05:42;38.08;34.69;40.53;;
37163;Laerm;23057;48.554;14.454;2024-03-08T12:08:13;38.15;34.69;40.80;;
37163;Laerm;23057;48.554;14.454;2024-03-08T12:10:44;38.12;35.01;40.98;;
37163;Laerm;23057;48.554;14.454;2024-03-08T12:13:17;38.19;34.31;41.75;;
37163;Laerm;23057;48.554;14.454;2024-03-08T12:15:48;38.23;34.69;40.71;;
37163;Laerm;23057;48.554;14.454;2024-03-08T12:18:19;38.14;34.69;40.71;;
37163;Laerm;23057;48.554;14.454;2024-03-08T12:20:50;38.09;34.31;40.54;;
37163;Laerm;23057;48.554;14.454;2024-03-08T12:23:21;38.07;33.90;40.62;;
37163;Laerm;23057;48.554;14.454;2024-03-08T12:25:51;38.04;34.69;40.53;;
37163;Laerm;23057;48.554;14.454;2024-03-08T12:28:22;38.04;34.31;40.53;;
37163;Laerm;23057;48.554;14.454;2024-03-08T12:30:53;38.06;34.34;40.71;;
37163;Laerm;23057;48.554;14.454;2024-03-08T12:33:30;38.12;34.69;40.71;;
37163;Laerm;23057;48.554;14.454;2024-03-08T12:36:01;38.10;34.31;40.53;;
37163;Laerm;23057;48.554;14.454;2024-03-08T12:38:32;38.06;34.69;41.06;;
37163;Laerm;23057;48.554;14.454;2024-03-08T12:41:05;38.06;34.31;40.71;;
37163;Laerm;23057;48.554;14.454;2024-03-08T12:43:39;38.05;34.31;40.43;;
37163;Laerm;23057;48.554;14.454;2024-03-08T12:46:10;38.08;34.31;40.33;;
37163;Laerm;23057;48.554;14.454;2024-03-08T12:48:40;38.10;35.04;41.22;;
37163;Laerm;23057;48.554;14.454;2024-03-08T12:51:11;38.36;34.69;40.98;;
37163;Laerm;23057;48.554;14.454;2024-03-08T12:53:44;38.32;34.69;40.80;;
37163;Laerm;23057;48.554;14.454;2024-03-08T12:56:30;38.23;34.69;40.89;;
37163;Laerm;23057;48.554;14.454;2024-03-08T12:59:07;38.10;34.69;40.80;;
37163;Laerm;23057;48.554;14.454;2024-03-08T13:01:38;38.15;34.69;41.46;;
37163;Laerm;23057;48.554;14.454;2024-03-08T13:04:09;38.09;34.31;40.53;;
37163;Laerm;23057;48.554;14.454;2024-03-08T13:06:41;38.08;34.69;40.43;;
37163;Laerm;23057;48.554;14.454;2024-03-08T13:09:13;38.18;35.04;41.30;;
37163;Laerm;23057;48.554;14.454;2024-03-08T13:11:44;38.14;35.04;40.71;;
37163;Laerm;23057;48.554;14.454;2024-03-08T13:14:15;38.13;34.31;40.33;;
37163;Laerm;23057;48.554;14.454;2024-03-08T13:16:46;38.11;34.31;40.53;;
37163;Laerm;23057;48.554;14.454;2024-03-08T13:19:18;38.15;34.69;41.06;;
37163;Laerm;23057;48.554;14.454;2024-03-08T13:21:52;38.17;34.31;40.80;;
37163;Laerm;23057;48.554;14.454;2024-03-08T13:24:24;38.15;33.44;40.71;;
37163;Laerm;23057;48.554;14.454;2024-03-08T13:26:55;38.17;34.69;40.80;;
37163;Laerm;23057;48.554;14.454;2024-03-08T13:29:26;38.12;33.90;40.89;;
37163;Laerm;23057;48.554;14.454;2024-03-08T13:31:57;38.15;34.31;40.53;;
37163;Laerm;23057;48.554;14.454;2024-03-08T13:34:32;38.17;35.04;42.29;;
37163;Laerm;23057;48.554;14.454;2024-03-08T13:37:06;38.08;34.69;40.53;;
37163;Laerm;23057;48.554;14.454;2024-03-08T13:39:38;38.28;34.69;42.03;;
37163;Laerm;23057;48.554;14.454;2024-03-08T13:42:14;38.11;34.69;40.79;;
37163;Laerm;23057;48.554;14.454;2024-03-08T13:44:47;38.22;34.69;41.38;;
37163;Laerm;23057;48.554;14.454;2024-03-08T13:47:18;38.07;33.90;40.62;;
37163;Laerm;23057;48.554;14.454;2024-03-08T13:49:49;38.06;33.44;40.43;;
37163;Laerm;23057;48.554;14.454;2024-03-08T13:52:21;38.04;34.31;40.53;;
37163;Laerm;23057;48.554;14.454;2024-03-08T13:54:52;38.09;34.69;40.43;;
37163;Laerm;23057;48.554;14.454;2024-03-08T13:57:23;38.06;34.69;40.80;;
37163;Laerm;23057;48.554;14.454;2024-03-08T13:59:54;38.07;34.69;40.27;;
37163;Laerm;23057;48.554;14.454;2024-03-08T14:02:26;38.04;34.69;40.71;;
37163;Laerm;23057;48.554;14.454;2024-03-08T14:05:01;38.05;35.04;40.43;;
37163;Laerm;23057;48.554;14.454;2024-03-08T14:07:33;38.11;34.69;40.80;;
37163;Laerm;23057;48.554;14.454;2024-03-08T14:10:05;38.06;35.04;40.71;;
37163;Laerm;23057;48.554;14.454;2024-03-08T14:12:37;38.06;34.69;40.89;;